Time;durP1;ratioP1;P1;durP2;ratioP2;P2;SDS_P1;SDS_P2;PMS_P1;PMS_P2;Temp;Humidity;BMP_temperature;BMP_pressure;BME280_temperature;BME280_humidity;BME280_pressure;Samples;Min_cycle;Max_cycle;Signal;HPM_P1;HPM_P2
2022/08/27 00:01:31;;;;;;;1.15;0.40;;;;;;;25.00;47.74;101674.69;5064596;28;20033;-58
2022/08/27 00:03:56;;;;;;;0.98;0.40;;;;;;;25.02;47.80;101688.09;5065395;28;20116;-58
2022/08/27 00:06:23;;;;;;;0.50;0.40;;;;;;;25.00;47.73;101690.16;5065822;28;20021;-59
2022/08/27 00:08:49;;;;;;;0.95;0.40;;;;;;;24.99;47.63;101685.75;5065206;28;20021;-59
2022/08/27 00:11:16;;;;;;;2.15;0.45;;;;;;;24.99;47.62;101688.50;5064812;28;20020;-58
2022/08/27 00:13:42;;;;;;;1.10;0.60;;;;;;;24.98;47.97;101681.34;5065274;28;20051;-57
2022/08/27 00:16:09;;;;;;;1.17;0.45;;;;;;;24.98;47.63;101682.22;5065096;28;20033;-59
2022/08/27 00:18:35;;;;;;;1.15;0.60;;;;;;;24.98;47.63;101681.34;5064935;28;20024;-59
2022/08/27 00:21:01;;;;;;;1.15;0.70;;;;;;;24.96;47.70;101676.09;5050868;28;20028;-59
2022/08/27 00:23:26;;;;;;;1.38;0.73;;;;;;;24.96;47.55;101672.53;5064896;28;20029;-56
2022/08/27 00:25:51;;;;;;;0.85;0.40;;;;;;;24.94;47.74;101665.41;5062595;28;20060;-55
2022/08/27 00:28:17;;;;;;;0.30;0.22;;;;;;;24.95;47.70;101671.69;5053342;28;20031;-58
2022/08/27 00:30:42;;;;;;;0.70;0.40;;;;;;;24.90;47.71;101658.66;5050872;28;20021;-58
2022/08/27 00:33:07;;;;;;;0.47;0.40;;;;;;;24.92;47.66;101664.75;5057968;28;20025;-59
2022/08/27 00:35:33;;;;;;;0.43;0.40;;;;;;;24.91;47.54;101664.94;5057436;28;20020;-59
2022/08/27 00:37:59;;;;;;;0.82;0.30;;;;;;;24.91;47.66;101663.06;5050279;28;20029;-59
2022/08/27 00:40:24;;;;;;;0.75;0.50;;;;;;;24.91;47.60;101659.50;5054955;28;20362;-59
2022/08/27 00:42:49;;;;;;;0.60;0.40;;;;;;;24.90;47.89;101657.81;5057926;28;20474;-58
2022/08/27 00:45:20;;;;;;;0.50;0.30;;;;;;;24.89;47.66;101661.56;5048921;28;20052;-59
2022/08/27 00:47:49;;;;;;;0.95;0.35;;;;;;;24.88;47.71;101665.31;5054935;28;20028;-58
2022/08/27 00:50:40;;;;;;;0.65;0.60;;;;;;;24.88;47.68;101666.16;5050694;28;20029;-59
2022/08/27 00:53:09;;;;;;;0.88;0.40;;;;;;;24.87;47.77;101664.47;5060005;28;20061;-59
2022/08/27 00:55:39;;;;;;;;;;;;;;;24.84;47.51;101666.72;5058145;28;20049;-58
2022/08/27 00:58:10;;;;;;;0.77;0.40;;;;;;;24.84;47.62;101662.13;5054505;28;19962;-59
2022/08/27 01:00:36;;;;;;;0.70;0.40;;;;;;;24.84;47.69;101664.00;5050646;28;20036;-59
2022/08/27 01:03:02;;;;;;;1.23;0.63;;;;;;;24.83;47.70;101659.63;5062389;28;20385;-59
2022/08/27 01:05:28;;;;;;;0.90;0.50;;;;;;;24.82;47.78;101669.66;5064853;28;20074;-59
2022/08/27 01:07:58;;;;;;;1.25;0.45;;;;;;;24.82;47.63;101672.38;5063099;28;20024;-58
2022/08/27 01:10:25;;;;;;;0.82;0.55;;;;;;;24.81;47.66;101673.41;5063005;28;20032;-58
2022/08/27 01:12:53;;;;;;;0.70;0.40;;;;;;;24.80;47.71;101673.59;5062113;28;20041;-58
2022/08/27 01:15:19;;;;;;;0.80;0.45;;;;;;;24.80;47.63;101671.69;5050592;28;20033;-58
2022/08/27 01:17:46;;;;;;;0.50;0.38;;;;;;;24.76;47.68;101666.84;5062289;28;20048;-58
2022/08/27 01:20:22;;;;;;;0.65;0.47;;;;;;;24.80;47.75;101674.41;5050333;28;20025;-58
2022/08/27 01:22:54;;;;;;;1.00;0.40;;;;;;;24.79;47.63;101680.06;5062208;28;20092;-57
2022/08/27 01:25:20;;;;;;;0.70;0.45;;;;;;;24.78;47.76;101679.22;5064297;28;20503;-58
2022/08/27 01:27:46;;;;;;;0.70;0.47;;;;;;;24.77;47.66;101671.25;5062303;28;20029;-57
2022/08/27 01:30:15;;;;;;;0.82;0.52;;;;;;;24.78;47.72;101678.38;5062609;28;20036;-59
2022/08/27 01:32:42;;;;;;;1.13;0.57;;;;;;;24.76;47.56;101675.84;5049155;28;20025;-59
2022/08/27 01:35:09;;;;;;;1.05;0.40;;;;;;;24.72;47.83;101674.53;5053066;28;20056;-59
2022/08/27 01:37:35;;;;;;;0.70;0.50;;;;;;;24.75;47.73;101671.44;5058005;28;20112;-59
2022/08/27 01:40:01;;;;;;;0.90;0.50;;;;;;;24.74;47.60;101672.47;5053527;28;20501;-58
2022/08/27 01:42:29;;;;;;;0.95;0.40;;;;;;;24.74;47.57;101674.34;5061262;28;20029;-58
2022/08/27 01:45:10;;;;;;;1.05;0.73;;;;;;;24.73;47.59;101676.22;5056405;28;20110;-59
2022/08/27 01:47:36;;;;;;;1.55;0.60;;;;;;;24.72;47.64;101671.81;5058931;28;20035;-59
2022/08/27 01:50:08;;;;;;;0.52;0.40;;;;;;;24.71;47.56;101672.00;5062793;28;20040;-59
2022/08/27 01:52:33;;;;;;;0.73;0.40;;;;;;;24.71;47.62;101674.72;5052327;28;20028;-57
2022/08/27 01:54:58;;;;;;;0.70;0.63;;;;;;;24.71;47.60;101672.84;5061998;28;20060;-59
2022/08/27 01:57:24;;;;;;;1.05;0.40;;;;;;;24.69;47.54;101664.88;5062845;28;20029;-59
2022/08/27 01:59:49;;;;;;;0.98;0.40;;;;;;;24.68;47.62;101662.38;5063641;28;20021;-59
2022/08/27 02:02:15;;;;;;;0.45;0.40;;;;;;;24.67;47.61;101658.78;5062447;28;20482;-59
2022/08/27 02:04:42;;;;;;;0.88;0.50;;;;;;;24.67;47.55;101663.38;5049559;28;20030;-58
2022/08/27 02:07:07;;;;;;;0.98;0.50;;;;;;;24.67;47.56;101655.22;5063265;28;20016;-58
2022/08/27 02:09:33;;;;;;;0.55;0.40;;;;;;;24.67;47.49;101655.22;5063616;28;20035;-58
2022/08/27 02:11:59;;;;;;;0.77;0.57;;;;;;;24.65;47.50;101663.56;5062173;28;20470;-58
2022/08/27 02:14:25;;;;;;;0.70;0.50;;;;;;;24.65;47.59;101657.28;5063548;28;20055;-59
2022/08/27 02:16:50;;;;;;;0.52;0.40;;;;;;;24.63;47.46;101665.63;5062620;28;20029;-59
2022/08/27 02:19:17;;;;;;;0.60;0.30;;;;;;;24.63;47.52;101670.22;5063605;28;20017;-60
2022/08/27 02:21:42;;;;;;;0.52;0.40;;;;;;;24.61;47.68;101661.41;5048966;28;20033;-59
2022/08/27 02:24:07;;;;;;;0.60;0.40;;;;;;;24.60;47.67;101663.31;5063226;28;20079;-59
2022/08/27 02:26:33;;;;;;;1.15;0.60;;;;;;;24.61;47.44;101666.84;5062502;28;20025;-58
2022/08/27 02:28:58;;;;;;;0.95;0.45;;;;;;;24.59;47.63;101663.47;5049441;28;20092;-58
2022/08/27 02:31:24;;;;;;;1.35;0.70;;;;;;;24.59;47.45;101660.75;5051069;28;20378;-56
2022/08/27 02:33:49;;;;;;;0.75;0.50;;;;;;;24.58;47.59;101661.78;5055892;28;20018;-58
2022/08/27 02:36:15;;;;;;;0.68;0.68;;;;;;;24.51;47.69;101648.13;5043074;28;20029;-59
2022/08/27 02:38:40;;;;;;;0.52;0.50;;;;;;;24.57;47.49;101652.78;5057326;28;20084;-59
2022/08/27 02:41:06;;;;;;;0.57;0.40;;;;;;;24.54;47.46;101647.72;5049652;28;20025;-56
2022/08/27 02:43:31;;;;;;;1.00;0.70;;;;;;;24.53;47.32;101645.22;5062622;28;20029;-59
2022/08/27 02:45:57;;;;;;;1.23;0.40;;;;;;;24.55;47.60;101648.56;5063092;28;20080;-59
2022/08/27 02:48:23;;;;;;;0.82;0.50;;;;;;;24.55;47.46;101651.28;5051422;28;20478;-58
2022/08/27 02:50:49;;;;;;;0.73;0.40;;;;;;;24.53;47.61;101648.75;5056879;28;20036;-58
2022/08/27 02:53:15;;;;;;;0.40;0.30;;;;;;;24.52;47.54;101651.69;5054939;28;20029;-58
2022/08/27 02:55:40;;;;;;;0.40;0.40;;;;;;;24.52;47.46;101651.69;5061614;28;20049;-58
2022/08/27 02:58:05;;;;;;;0.95;0.60;;;;;;;24.51;47.55;101647.25;5049378;28;20031;-60
2022/08/27 03:00:30;;;;;;;0.50;0.40;;;;;;;24.51;47.34;101655.41;5048722;28;20025;-58
2022/08/27 03:02:56;;;;;;;1.10;0.60;;;;;;;24.50;47.49;101651.00;5060151;28;20036;-59
2022/08/27 03:05:22;;;;;;;0.95;0.50;;;;;;;24.49;47.45;101654.78;5059901;28;20025;-59
2022/08/27 03:07:48;;;;;;;1.05;0.55;;;;;;;24.48;47.29;101650.38;5060004;28;20489;-58
2022/08/27 03:10:16;;;;;;;1.00;0.52;;;;;;;24.48;47.48;101644.94;5062973;28;20020;-58
2022/08/27 03:12:41;;;;;;;1.67;0.65;;;;;;;24.44;47.31;101645.28;5065957;28;20547;-59
2022/08/27 03:15:08;;;;;;;0.57;0.40;;;;;;;24.46;47.40;101645.09;5065594;28;20033;-59
2022/08/27 03:20:18;;;;;;;1.42;0.57;;;;;;;24.44;47.52;101641.75;5063578;28;20036;-59
2022/08/27 03:22:44;;;;;;;0.70;0.50;;;;;;;24.43;47.54;101643.63;5065784;28;20025;-59
2022/08/27 03:25:10;;;;;;;0.75;0.50;;;;;;;24.42;47.50;101641.94;5052242;28;20029;-59
2022/08/27 03:27:35;;;;;;;0.77;0.57;;;;;;;24.42;47.37;101643.78;5059780;28;20117;-59
2022/08/27 03:30:06;;;;;;;1.08;0.70;;;;;;;24.36;47.34;101628.22;5066515;28;20083;-59
2022/08/27 03:32:31;;;;;;;0.80;0.47;;;;;;;24.38;47.35;101632.47;5051978;28;20025;-59
2022/08/27 03:34:57;;;;;;;0.88;0.60;;;;;;;24.39;47.49;101631.44;5066332;28;20052;-59
2022/08/27 03:37:22;;;;;;;1.13;0.60;;;;;;;24.38;47.35;101635.19;5065885;28;20025;-58
2022/08/27 03:39:48;;;;;;;1.13;0.70;;;;;;;24.38;47.31;101634.31;5066249;28;20052;-59
2022/08/27 03:42:13;;;;;;;0.98;0.50;;;;;;;24.37;47.42;101638.03;5064601;28;20096;-59
2022/08/27 03:44:39;;;;;;;0.88;0.50;;;;;;;24.35;47.66;101631.97;5057719;28;20033;-59
2022/08/27 03:47:04;;;;;;;0.68;0.43;;;;;;;24.36;47.36;101636.38;5057945;28;20021;-59
2022/08/27 03:49:30;;;;;;;1.00;0.40;;;;;;;24.34;47.39;101633.84;5052454;28;20394;-59
2022/08/27 03:51:55;;;;;;;0.77;0.40;;;;;;;24.34;47.46;101633.84;5056428;28;20096;-59
2022/08/27 03:54:20;;;;;;;1.33;0.95;;;;;;;24.33;47.60;101636.72;5065682;28;20116;-59
2022/08/27 03:56:46;;;;;;;0.60;0.52;;;;;;;24.32;47.44;101637.75;5065336;28;20047;-59
2022/08/27 03:59:11;;;;;;;0.50;0.40;;;;;;;24.32;47.58;101641.31;5051905;28;20052;-59
2022/08/27 04:01:36;;;;;;;0.88;0.65;;;;;;;24.31;47.29;101642.38;5057074;28;20021;-59
2022/08/27 04:04:02;;;;;;;0.88;0.60;;;;;;;24.31;47.25;101650.50;5048428;28;20041;-59
2022/08/27 04:06:27;;;;;;;0.73;0.50;;;;;;;24.28;47.56;101647.31;5058443;28;20025;-59
2022/08/27 04:08:52;;;;;;;1.52;0.55;;;;;;;24.24;47.36;101644.13;5053887;28;20145;-60
2022/08/27 04:11:18;;;;;;;1.75;0.70;;;;;;;24.29;47.37;101654.44;5051027;28;20033;-59
2022/08/27 04:13:43;;;;;;;0.82;0.60;;;;;;;24.28;47.40;101655.47;5058283;28;20032;-58
2022/08/27 04:16:08;;;;;;;0.75;0.50;;;;;;;24.26;47.39;101658.38;5057172;28;20033;-57
2022/08/27 04:18:34;;;;;;;0.70;0.50;;;;;;;24.25;47.39;101651.25;5051067;28;20110;-59
2022/08/27 04:21:06;;;;;;;1.73;0.75;;;;;;;24.26;47.16;101652.13;5065118;28;20447;-59
2022/08/27 04:23:31;;;;;;;1.10;0.70;;;;;;;24.25;47.23;101655.84;5062455;28;20051;-59
2022/08/27 04:25:57;;;;;;;0.90;0.70;;;;;;;24.24;47.41;101655.00;5053775;28;20025;-59
2022/08/27 04:28:23;;;;;;;0.55;0.50;;;;;;;24.11;47.39;101644.78;5060743;28;20025;-58
2022/08/27 04:30:48;;;;;;;1.52;0.88;;;;;;;24.22;47.29;101661.66;5058882;28;20030;-59
2022/08/27 04:33:14;;;;;;;0.82;0.55;;;;;;;24.19;47.36;101662.88;5056824;28;20017;-59
2022/08/27 04:35:40;;;;;;;1.05;0.73;;;;;;;24.21;47.26;101655.34;5051051;28;20033;-59
2022/08/27 04:38:05;;;;;;;0.88;0.60;;;;;;;24.18;47.42;101655.75;5054620;28;20696;-60
2022/08/27 04:43:15;;;;;;;0.93;0.55;;;;;;;24.16;47.27;101653.19;5055108;28;20031;-58
2022/08/27 04:45:47;;;;;;;2.10;0.60;;;;;;;24.19;47.61;101661.00;5065065;28;20013;-58
2022/08/27 04:48:15;;;;;;;0.65;0.40;;;;;;;24.13;47.21;101659.03;5054372;28;20024;-59
2022/08/27 04:50:42;;;;;;;1.33;0.63;;;;;;;24.17;47.24;101665.78;5060414;28;20021;-60
2022/08/27 04:53:09;;;;;;;0.85;0.52;;;;;;;24.16;47.27;101658.63;5064217;28;20565;-59
2022/08/27 04:55:43;;;;;;;0.70;0.50;;;;;;;24.16;47.19;101660.50;5064253;28;20048;-58
2022/08/27 04:58:09;;;;;;;0.95;0.70;;;;;;;24.15;47.33;101653.41;5063729;28;20104;-58
2022/08/27 05:01:00;;;;;;;1.10;0.60;;;;;;;24.14;47.04;101652.56;5064758;28;20552;-57
2022/08/27 05:03:25;;;;;;;0.68;0.50;;;;;;;24.14;47.15;101654.44;5058361;28;20402;-58
2022/08/27 05:05:53;;;;;;;0.70;0.60;;;;;;;24.11;47.19;101654.81;5042214;28;20484;-55
2022/08/27 05:08:18;;;;;;;0.80;0.60;;;;;;;24.13;47.38;101653.59;5061520;28;20080;-58
2022/08/27 05:10:46;;;;;;;1.15;0.57;;;;;;;24.14;47.19;101663.44;5064269;28;20028;-59
2022/08/27 05:13:12;;;;;;;0.80;0.60;;;;;;;24.14;47.23;101665.31;5063329;28;20028;-59
2022/08/27 05:15:38;;;;;;;0.93;0.70;;;;;;;24.12;47.29;101664.63;5064465;28;20123;-59
2022/08/27 05:18:05;;;;;;;0.90;0.52;;;;;;;24.09;47.19;101662.31;5063351;28;20021;-59
2022/08/27 05:20:31;;;;;;;0.95;0.57;;;;;;;24.12;47.25;101668.19;5057905;28;20107;-59
2022/08/27 05:22:57;;;;;;;0.98;0.60;;;;;;;24.12;47.14;101659.19;5063448;28;20098;-59
2022/08/27 05:25:24;;;;;;;0.80;0.57;;;;;;;24.12;47.15;101664.63;5057407;28;20029;-58
2022/08/27 05:27:49;;;;;;;1.58;0.80;;;;;;;24.10;47.41;101664.81;5062799;28;20456;-59
2022/08/27 05:30:14;;;;;;;0.88;0.80;;;;;;;24.12;47.28;101668.19;5063663;28;20495;-60
2022/08/27 05:32:40;;;;;;;0.80;0.55;;;;;;;24.12;47.09;101673.63;5062283;28;20033;-60
2022/08/27 05:35:05;;;;;;;0.60;0.57;;;;;;;24.12;47.06;101670.91;5063398;28;20078;-59
2022/08/27 05:37:32;;;;;;;1.30;0.63;;;;;;;24.12;47.20;101667.34;5062916;28;20021;-59
2022/08/27 05:39:58;;;;;;;0.80;0.65;;;;;;;24.11;47.30;101676.53;5063314;28;20027;-59
2022/08/27 05:42:24;;;;;;;0.50;0.40;;;;;;;24.11;47.24;101677.38;5061951;28;20028;-56
2022/08/27 05:44:49;;;;;;;1.33;0.50;;;;;;;24.12;47.25;101678.22;5063335;28;20043;-59
2022/08/27 05:47:14;;;;;;;0.80;0.57;;;;;;;24.11;47.22;101673.81;5061954;28;20032;-58
2022/08/27 05:49:39;;;;;;;0.90;0.60;;;;;;;24.11;47.15;101677.38;5062838;28;20052;-58
2022/08/27 05:52:10;;;;;;;1.00;0.60;;;;;;;24.11;47.40;101674.66;5061971;28;20024;-57
2022/08/27 05:54:35;;;;;;;1.20;0.60;;;;;;;24.11;47.12;101676.53;5061007;28;20225;-58
2022/08/27 05:57:00;;;;;;;1.60;0.60;;;;;;;24.11;47.11;101674.66;5054714;28;20029;-58
2022/08/27 06:02:10;;;;;;;0.57;0.43;;;;;;;24.09;47.29;101671.28;5054235;28;20032;-58
2022/08/27 06:04:35;;;;;;;1.75;0.55;;;;;;;24.10;47.35;101664.81;5062690;28;20025;-58
2022/08/27 06:07:01;;;;;;;0.93;0.73;;;;;;;24.10;47.34;101675.69;5061973;28;20049;-59
2022/08/27 06:09:28;;;;;;;0.65;0.40;;;;;;;24.11;47.47;101669.22;5062759;28;20025;-58
2022/08/27 06:11:54;;;;;;;0.77;0.57;;;;;;;24.12;47.41;101670.91;5061010;28;20099;-58
2022/08/27 06:14:20;;;;;;;1.17;0.77;;;;;;;24.13;47.50;101677.22;5062572;28;20043;-57
2022/08/27 06:16:47;;;;;;;0.73;0.70;;;;;;;24.14;47.45;101668.03;5061746;28;20103;-58
2022/08/27 06:19:12;;;;;;;0.50;0.47;;;;;;;24.16;47.38;101676.81;5062503;28;20048;-59
2022/08/27 06:21:38;;;;;;;0.73;0.52;;;;;;;24.16;47.08;101674.94;5062281;28;20033;-55
2022/08/27 06:24:04;;;;;;;1.38;0.70;;;;;;;24.18;47.17;101666.63;5059700;28;20046;-54
2022/08/27 06:26:29;;;;;;;1.17;0.50;;;;;;;24.17;47.32;101679.38;5061722;28;20068;-54
2022/08/27 06:28:55;;;;;;;1.50;0.73;;;;;;;24.19;47.25;101679.19;5062161;28;20032;-51
2022/08/27 06:31:22;;;;;;;1.27;0.73;;;;;;;24.19;47.24;101680.00;5060486;28;20603;-52
2022/08/27 06:33:50;;;;;;;1.25;0.70;;;;;;;24.20;47.11;101678.97;5061952;28;20015;-51
2022/08/27 06:36:18;;;;;;;1.13;0.75;;;;;;;24.22;47.19;101688.84;5062744;28;20399;-54
2022/08/27 06:38:44;;;;;;;1.17;0.80;;;;;;;24.21;47.52;101682.53;5066847;28;20048;-53
2022/08/27 06:41:11;;;;;;;1.20;0.68;;;;;;;24.24;47.28;101692.19;5065837;28;20017;-52
2022/08/27 06:43:38;;;;;;;1.00;0.77;;;;;;;24.23;47.43;101683.22;5065219;28;20036;-53
2022/08/27 06:46:05;;;;;;;1.00;0.63;;;;;;;24.23;47.30;101688.66;5059021;28;20029;-51
2022/08/27 06:48:31;;;;;;;0.80;0.50;;;;;;;24.24;47.47;101690.31;5054010;28;20048;-52
2022/08/27 06:50:57;;;;;;;0.75;0.60;;;;;;;24.25;47.42;101688.44;5057973;28;20025;-54
2022/08/27 06:53:22;;;;;;;1.10;0.52;;;;;;;24.24;47.42;101686.75;5056600;28;20032;-50
2022/08/27 06:55:48;;;;;;;1.35;0.88;;;;;;;24.24;47.35;101682.19;5056072;28;20501;-53
2022/08/27 06:58:15;;;;;;;0.70;0.55;;;;;;;24.23;47.22;101693.25;5064745;28;20025;-53
2022/08/27 07:00:41;;;;;;;1.33;0.90;;;;;;;24.24;47.35;101686.75;5065961;28;20024;-53
2022/08/27 07:03:06;;;;;;;0.70;0.40;;;;;;;24.23;47.30;101691.38;5064697;28;20028;-55
2022/08/27 07:05:34;;;;;;;0.70;0.50;;;;;;;24.21;47.43;101679.81;5066248;28;20021;-51
2022/08/27 07:08:00;;;;;;;1.60;0.63;;;;;;;24.24;47.27;101682.19;5065691;28;20017;-53
2022/08/27 07:10:26;;;;;;;1.20;0.70;;;;;;;24.25;47.20;101677.56;5064760;28;20036;-53
2022/08/27 07:12:52;;;;;;;1.30;0.60;;;;;;;24.25;47.25;101681.13;5064678;28;20016;-53
2022/08/27 07:15:17;;;;;;;1.17;0.70;;;;;;;24.28;47.07;101688.94;5065777;28;20044;-54
2022/08/27 07:17:43;;;;;;;1.13;0.80;;;;;;;24.25;47.09;101683.00;5064664;28;20060;-53
2022/08/27 07:20:10;;;;;;;0.95;0.68;;;;;;;24.30;47.05;101691.44;5065600;28;20039;-54
2022/08/27 07:22:38;;;;;;;1.30;0.80;;;;;;;24.31;46.93;101685.84;5065531;28;20051;-54
2022/08/27 07:25:04;;;;;;;1.38;0.70;;;;;;;24.31;46.95;101685.00;5063456;28;20020;-52
2022/08/27 07:27:29;;;;;;;1.42;0.88;;;;;;;24.30;47.08;101691.44;5064702;28;20032;-52
2022/08/27 07:29:54;;;;;;;1.17;0.70;;;;;;;24.30;47.04;101692.31;5065028;28;20037;-51
2022/08/27 07:32:20;;;;;;;0.80;0.50;;;;;;;24.30;47.05;101696.88;5064315;28;20075;-53
2022/08/27 07:34:45;;;;;;;0.90;0.60;;;;;;;24.29;47.29;101698.75;5065541;28;20024;-52
2022/08/27 07:37:10;;;;;;;1.30;0.75;;;;;;;24.25;47.22;101688.44;5064930;28;20028;-52
2022/08/27 07:39:35;;;;;;;1.05;0.70;;;;;;;24.25;47.14;101697.44;5065744;28;20037;-54
2022/08/27 07:44:45;;;;;;;1.33;0.70;;;;;;;24.27;47.15;101695.41;5065378;28;20097;-50
2022/08/27 07:47:10;;;;;;;0.95;0.60;;;;;;;24.25;47.03;101694.72;5063989;28;20574;-51
2022/08/27 07:49:36;;;;;;;0.90;0.60;;;;;;;24.27;47.14;101698.13;5065345;28;20613;-50
2022/08/27 07:52:02;;;;;;;0.63;0.60;;;;;;;24.27;47.01;101703.56;5064694;28;20047;-53
2022/08/27 07:54:27;;;;;;;1.00;0.60;;;;;;;24.28;47.18;101696.25;5064695;28;20045;-52
2022/08/27 07:56:54;;;;;;;1.20;0.63;;;;;;;24.28;47.05;101699.78;5064167;28;20060;-53
2022/08/27 07:59:19;;;;;;;0.90;0.60;;;;;;;24.28;47.15;101696.25;5064784;28;20021;-50
2022/08/27 08:01:44;;;;;;;2.25;0.82;;;;;;;24.28;47.03;101691.66;5063790;28;20044;-54
2022/08/27 08:04:10;;;;;;;1.30;0.90;;;;;;;24.25;47.13;101688.44;5064594;28;20048;-51
2022/08/27 08:06:37;;;;;;;0.70;0.50;;;;;;;24.31;47.25;101699.44;5064912;28;20009;-53
2022/08/27 08:09:04;;;;;;;0.75;0.50;;;;;;;24.33;47.13;101691.09;5064446;28;20155;-51
2022/08/27 08:11:29;;;;;;;0.90;0.60;;;;;;;24.33;47.44;101700.06;5064571;28;20032;-53
2022/08/27 08:13:54;;;;;;;1.00;0.60;;;;;;;24.34;47.22;101709.94;5062324;28;20036;-54
2022/08/27 08:16:23;;;;;;;1.23;0.70;;;;;;;24.37;47.14;101709.59;5063087;28;20029;-49
2022/08/27 08:18:48;;;;;;;0.90;0.60;;;;;;;24.39;47.36;101701.25;5059553;28;20085;-53
2022/08/27 08:21:13;;;;;;;2.53;0.70;;;;;;;24.40;47.25;101703.78;5064418;28;20025;-50
2022/08/27 08:23:39;;;;;;;0.95;0.57;;;;;;;24.45;47.09;101700.50;5061000;28;20018;-53
2022/08/27 08:26:05;;;;;;;1.40;0.60;;;;;;;24.48;47.16;101707.47;5062710;28;20080;-51
2022/08/27 08:28:31;;;;;;;0.90;0.70;;;;;;;24.48;46.84;101708.28;5051963;28;20017;-51
2022/08/27 08:30:57;;;;;;;0.82;0.50;;;;;;;24.48;46.93;101711.00;5057767;28;20029;-53
2022/08/27 08:33:22;;;;;;;1.45;0.50;;;;;;;24.50;46.91;101714.38;5063703;28;20036;-54
2022/08/27 08:35:48;;;;;;;1.08;0.75;;;;;;;24.51;46.81;101702.50;5059596;28;20049;-50
2022/08/27 08:38:14;;;;;;;0.63;0.47;;;;;;;24.54;46.87;101712.13;5062605;28;20017;-51
2022/08/27 08:40:42;;;;;;;0.70;0.50;;;;;;;24.56;47.00;101710.94;5060794;28;20017;-51
2022/08/27 08:43:38;;;;;;;1.90;0.50;;;;;;;24.67;46.94;101707.72;5045632;28;20377;-54
2022/08/27 08:46:20;;;;;;;1.20;0.60;;;;;;;24.79;46.83;101701.81;5055411;28;20379;-51
2022/08/27 08:48:49;;;;;;;1.40;0.60;;;;;;;24.89;46.51;101721.41;5044992;28;20098;-51
2022/08/27 08:51:30;;;;;;;0.88;0.60;;;;;;;24.93;46.42;101714.56;5045818;28;20022;-53
2022/08/27 08:54:04;;;;;;;1.35;0.82;;;;;;;25.03;46.12;101719.72;5046768;28;20052;-50
2022/08/27 08:56:49;;;;;;;0.70;0.40;;;;;;;25.15;46.15;101723.69;5051645;28;20041;-55
2022/08/27 08:59:20;;;;;;;1.80;0.70;;;;;;;25.15;46.00;101726.41;5059818;28;20029;-53
2022/08/27 09:01:45;;;;;;;1.58;0.63;;;;;;;25.15;45.82;101735.41;5063461;28;20024;-52
2022/08/27 09:04:11;;;;;;;0.85;0.50;;;;;;;25.18;45.80;101720.56;5050850;28;20032;-53
2022/08/27 09:06:53;;;;;;;0.95;0.60;;;;;;;25.28;45.69;101723.84;5056993;28;20121;-50
2022/08/27 09:09:22;;;;;;;2.13;0.50;;;;;;;25.33;45.42;101728.72;5059755;28;20024;-50
2022/08/27 09:11:58;;;;;;;1.52;0.80;;;;;;;25.35;45.37;101729.34;5059196;28;20025;-55
2022/08/27 09:14:59;;;;;;;0.70;0.50;;;;;;;25.32;45.29;101732.47;5054255;28;20040;-51
2022/08/27 09:17:25;;;;;;;0.98;0.60;;;;;;;25.28;45.34;101728.44;5051329;28;20222;-54
2022/08/27 09:19:50;;;;;;;1.40;0.60;;;;;;;25.35;45.48;101724.72;5063609;28;20070;-56
2022/08/27 09:22:27;;;;;;;1.15;0.60;;;;;;;25.48;45.32;101723.19;5063597;28;20028;-55
2022/08/27 09:25:15;;;;;;;1.13;0.60;;;;;;;25.56;45.17;101721.19;5063997;28;20029;-52
2022/08/27 09:27:41;;;;;;;1.13;0.80;;;;;;;25.53;44.86;101721.59;5078363;28;20078;-51
2022/08/27 09:30:11;;;;;;;0.82;0.50;;;;;;;25.53;45.14;101721.59;5061145;28;20055;-55
2022/08/27 09:32:38;;;;;;;0.82;0.50;;;;;;;25.52;44.94;101708.16;5042748;28;20041;-53
2022/08/27 09:35:06;;;;;;;0.73;0.40;;;;;;;25.64;44.85;101715.63;5057284;28;20036;-51
2022/08/27 09:37:38;;;;;;;1.10;0.70;;;;;;;25.69;44.78;101723.22;5063600;28;20032;-50
2022/08/27 09:40:25;;;;;;;0.93;0.57;;;;;;;25.69;44.30;101721.34;5063614;28;20044;-53
2022/08/27 09:42:53;;;;;;;1.17;0.60;;;;;;;25.63;44.66;101722.13;5045326;28;20034;-56
2022/08/27 09:45:27;;;;;;;0.90;0.60;;;;;;;25.58;44.37;101724.59;5057369;28;20506;-50
2022/08/27 09:48:04;;;;;;;1.25;0.75;;;;;;;25.52;44.57;101724.50;5049609;28;20044;-53
2022/08/27 09:50:36;;;;;;;1.10;0.70;;;;;;;25.47;44.46;101725.09;5062980;28;20104;-52
2022/08/27 09:53:03;;;;;;;1.00;0.70;;;;;;;25.39;44.59;101720.59;5049137;28;20474;-56
2022/08/27 09:55:33;;;;;;;1.50;0.50;;;;;;;25.47;44.88;101721.53;5049789;28;20054;-54
2022/08/27 09:57:59;;;;;;;0.73;0.50;;;;;;;25.55;44.62;101719.53;5047392;28;20021;-51
2022/08/27 10:00:35;;;;;;;0.70;0.52;;;;;;;25.57;44.52;101722.03;5061792;28;20043;-53
2022/08/27 10:03:02;;;;;;;0.60;0.40;;;;;;;25.53;44.70;101720.72;5060545;28;20032;-51
2022/08/27 10:05:41;;;;;;;1.30;0.70;;;;;;;25.47;44.49;101727.81;5055506;28;20025;-53
2022/08/27 10:08:27;;;;;;;;;;;;;;;25.37;44.75;101727.28;5056027;28;20022;-56
2022/08/27 10:10:58;;;;;;;0.65;0.40;;;;;;;25.31;44.66;101719.88;5051766;28;19974;-54
2022/08/27 10:13:32;;;;;;;1.25;0.60;;;;;;;25.26;44.80;101719.59;5047749;28;20028;-57
2022/08/27 10:16:04;;;;;;;0.75;0.68;;;;;;;25.20;44.98;101726.66;5063079;28;20025;-56
2022/08/27 10:18:58;;;;;;;0.95;0.60;;;;;;;25.16;44.84;101734.38;5046796;28;20017;-56
2022/08/27 10:21:42;;;;;;;1.35;0.82;;;;;;;25.13;45.04;101731.19;5055416;28;20093;-55
2022/08/27 10:24:19;;;;;;;0.65;0.45;;;;;;;25.09;45.07;101724.44;5050312;28;20471;-55
2022/08/27 10:27:11;;;;;;;0.50;0.43;;;;;;;25.07;45.08;101724.59;5059812;28;20040;-54
2022/08/27 10:29:48;;;;;;;0.77;0.50;;;;;;;25.04;45.28;101719.53;5052207;28;20092;-56
2022/08/27 10:32:28;;;;;;;0.80;0.50;;;;;;;25.03;45.24;101717.84;5060255;28;20035;-56
2022/08/27 10:35:07;;;;;;;1.08;0.60;;;;;;;25.08;45.43;101720.88;5049251;28;20030;-55
2022/08/27 10:37:44;;;;;;;0.73;0.47;;;;;;;25.24;45.37;101718.97;5047446;28;20017;-54
2022/08/27 10:40:33;;;;;;;0.65;0.43;;;;;;;25.45;45.32;101721.72;5049116;28;20518;-54
2022/08/27 10:43:23;;;;;;;0.80;0.50;;;;;;;25.51;45.01;101720.94;5060339;28;20036;-54
2022/08/27 10:46:07;;;;;;;0.80;0.60;;;;;;;25.50;44.82;101719.25;5044583;28;20030;-52
2022/08/27 10:48:44;;;;;;;0.60;0.55;;;;;;;25.46;44.67;101723.41;5054578;28;20025;-53
2022/08/27 10:51:25;;;;;;;1.33;0.50;;;;;;;25.41;44.77;101732.16;5047154;28;20021;-53
2022/08/27 10:54:09;;;;;;;0.60;0.40;;;;;;;25.38;44.86;101723.53;5078174;28;20025;-53
2022/08/27 10:56:41;;;;;;;1.13;0.55;;;;;;;25.32;45.01;101724.31;5052499;28;20053;-54
2022/08/27 10:59:27;;;;;;;0.60;0.40;;;;;;;25.29;44.93;101728.25;5056185;28;20024;-52
2022/08/27 11:02:20;;;;;;;1.05;0.50;;;;;;;25.24;44.99;101725.25;5059988;28;20710;-54
2022/08/27 11:04:50;;;;;;;0.70;0.70;;;;;;;25.21;44.97;101730.22;5057361;28;20024;-56
2022/08/27 11:07:26;;;;;;;0.95;0.50;;;;;;;25.18;44.96;101728.72;5060913;28;20494;-54
2022/08/27 11:09:59;;;;;;;0.65;0.40;;;;;;;25.12;45.11;101729.50;5062537;28;20025;-56
2022/08/27 11:12:32;;;;;;;0.63;0.40;;;;;;;25.14;45.16;101733.69;5060065;28;20021;-55
2022/08/27 11:15:10;;;;;;;0.60;0.60;;;;;;;25.15;45.22;101734.56;5058796;28;20021;-55
2022/08/27 11:17:39;;;;;;;1.05;0.55;;;;;;;25.12;45.31;101730.34;5049960;28;20359;-54
2022/08/27 11:20:16;;;;;;;1.02;0.60;;;;;;;25.14;45.21;101727.41;5054630;28;20036;-53
2022/08/27 11:22:46;;;;;;;0.57;0.40;;;;;;;25.15;45.31;101726.41;5061723;28;20092;-52
2022/08/27 11:25:29;;;;;;;0.40;0.40;;;;;;;25.16;45.14;101726.19;5050876;28;20066;-54
2022/08/27 11:27:56;;;;;;;0.40;0.30;;;;;;;25.17;45.15;101727.03;5063400;28;20012;-54
2022/08/27 11:30:37;;;;;;;0.50;0.40;;;;;;;25.20;45.16;101729.38;5065655;28;20097;-53
2022/08/27 11:33:16;;;;;;;0.70;0.40;;;;;;;25.22;45.18;101721.03;5074087;28;20028;-54
2022/08/27 11:35:49;;;;;;;0.73;0.40;;;;;;;25.24;45.08;101717.09;5063298;28;20033;-56
2022/08/27 11:38:40;;;;;;;0.60;0.45;;;;;;;25.27;45.22;101711.25;5065194;28;20025;-52
2022/08/27 11:41:15;;;;;;;0.40;0.40;;;;;;;25.27;45.15;101716.69;5065084;28;20115;-52
2022/08/27 11:43:42;;;;;;;0.40;0.30;;;;;;;25.28;45.06;101709.38;5062967;28;20116;-51
2022/08/27 11:46:08;;;;;;;0.80;0.47;;;;;;;25.31;45.09;101709.81;5052335;28;20013;-49